createdAt,value
2023-04-15T00:00:11.488Z,15.15
2023-04-15T00:03:19.482Z,14.92
2023-04-15T00:06:23.434Z,15.19
2023-04-15T00:09:27.152Z,15.26
2023-04-15T00:12:30.740Z,14.96
2023-04-15T00:15:34.402Z,15.02
2023-04-15T00:18:39.729Z,14.46
2023-04-15T00:21:43.288Z,14.72
2023-04-15T00:24:46.785Z,14.74
2023-04-15T00:27:50.292Z,14.31
2023-04-15T00:30:53.963Z,13.99
2023-04-15T00:33:59.859Z,14.41
2023-04-15T00:37:03.351Z,14.46
2023-04-15T00:40:08.806Z,14.26
2023-04-15T00:43:12.316Z,14.63
2023-04-15T00:46:17.805Z,14.71
2023-04-15T00:49:23.335Z,14.78
2023-04-15T00:52:27.726Z,14.81
2023-04-15T00:55:31.510Z,14.63
2023-04-15T00:58:35.088Z,14.18
2023-04-15T01:01:39.567Z,14.26
2023-04-15T01:04:44.769Z,14.06
2023-04-15T01:07:49.125Z,14.31
2023-04-15T01:10:52.654Z,14.15
2023-04-15T01:13:57.657Z,14.20
2023-04-15T01:17:01.494Z,14.26
2023-04-15T01:20:10.322Z,14.31
2023-04-15T01:23:14.715Z,14.38
2023-04-15T01:26:19.937Z,14.32
2023-04-15T01:29:23.994Z,14.32
2023-04-15T01:32:27.698Z,14.54
2023-04-15T01:35:31.202Z,14.52
2023-04-15T01:38:34.976Z,14.33
2023-04-15T01:41:40.541Z,13.54
2023-04-15T01:44:44.080Z,13.87
2023-04-15T01:47:49.533Z,13.78
2023-04-15T01:50:53.907Z,14.28
2023-04-15T01:53:57.949Z,14.29
2023-04-15T01:57:03.916Z,13.77
2023-04-15T02:00:09.137Z,14.05
2023-04-15T02:03:19.443Z,14.10
2023-04-15T02:06:22.957Z,13.92
2023-04-15T02:09:26.570Z,13.92
2023-04-15T02:12:31.469Z,13.91
2023-04-15T02:15:35.265Z,13.67
2023-04-15T02:18:38.765Z,13.98
2023-04-15T02:21:42.544Z,13.68
2023-04-15T02:24:47.211Z,13.81
2023-04-15T02:27:52.196Z,13.52
2023-04-15T02:30:57.793Z,13.90
2023-04-15T02:34:03.208Z,13.91
2023-04-15T02:37:07.830Z,13.57
2023-04-15T02:40:13.493Z,13.50
2023-04-15T02:43:19.036Z,13.68
2023-04-15T02:46:23.212Z,13.89
2023-04-15T02:49:27.012Z,13.88
2023-04-15T02:52:30.598Z,13.94
2023-04-15T02:55:34.184Z,13.93
2023-04-15T02:58:39.438Z,13.83
2023-04-15T03:01:43.245Z,13.74
2023-04-15T03:04:46.793Z,13.46
2023-04-15T03:07:50.316Z,13.46
2023-04-15T03:10:54.568Z,13.33
2023-04-15T03:14:00.937Z,13.51
2023-04-15T03:17:09.622Z,13.40
2023-04-15T03:20:15.856Z,13.54
2023-04-15T03:23:19.959Z,13.45
2023-04-15T03:26:28.479Z,13.33
2023-04-15T03:29:37.148Z,13.04
2023-04-15T03:32:41.343Z,12.87
2023-04-15T03:35:45.639Z,12.88
2023-04-15T03:38:49.596Z,12.82
2023-04-15T03:41:53.121Z,12.84
2023-04-15T03:44:58.136Z,12.42
2023-04-15T03:51:08.070Z,12.21
2023-04-15T03:54:11.883Z,12.37
2023-04-15T03:57:15.389Z,12.50
2023-04-15T04:00:20.938Z,12.73
2023-04-15T04:03:24.611Z,12.73
2023-04-15T04:06:28.436Z,12.74
2023-04-15T04:09:31.934Z,12.83
2023-04-15T04:12:35.329Z,12.85
2023-04-15T04:15:40.282Z,12.82
2023-04-15T04:18:43.877Z,11.95
2023-04-15T04:21:47.523Z,12.20
2023-04-15T04:24:51.157Z,11.99
2023-04-15T04:27:54.597Z,12.32
2023-04-15T04:30:59.561Z,12.06
2023-04-15T04:34:03.124Z,12.09
2023-04-15T04:37:07.134Z,11.95
2023-04-15T04:40:11.762Z,12.01
2023-04-15T04:43:16.169Z,12.18
2023-04-15T04:46:21.917Z,12.37
2023-04-15T04:49:25.751Z,12.37
2023-04-15T04:52:29.336Z,12.43
2023-04-15T04:55:33.320Z,12.85
2023-04-15T04:58:36.864Z,13.29
2023-04-15T05:01:42.186Z,13.77
2023-04-15T05:04:45.683Z,13.58
2023-04-15T05:07:50.527Z,14.21
2023-04-15T05:10:54.022Z,14.52
2023-04-15T05:13:58.340Z,14.76
2023-04-15T05:17:03.627Z,14.46
2023-04-15T05:20:08.513Z,14.97
2023-04-15T05:23:12.358Z,15.41
2023-04-15T05:26:16.135Z,15.61
2023-04-15T05:29:19.795Z,15.74
2023-04-15T05:32:25.020Z,15.84
2023-04-15T05:35:28.969Z,16.06
2023-04-15T05:38:32.772Z,15.74
2023-04-15T05:41:36.468Z,16.08
2023-04-15T05:44:40.110Z,15.81
2023-04-15T05:47:45.254Z,16.16
2023-04-15T05:50:49.105Z,16.18
2023-04-15T05:53:52.818Z,15.56
2023-04-15T05:56:56.643Z,15.92
2023-04-15T06:00:00.238Z,15.29
2023-04-15T06:03:06.584Z,15.66
2023-04-15T06:06:10.348Z,16.00
2023-04-15T06:09:14.066Z,16.09
2023-04-15T06:12:17.773Z,16.74
2023-04-15T06:15:21.520Z,16.78
2023-04-15T06:18:26.790Z,17.45
2023-04-15T06:21:31.506Z,17.74
2023-04-15T06:24:37.268Z,17.91
2023-04-15T06:27:41.668Z,18.08
2023-04-15T06:30:45.451Z,18.42
2023-04-15T06:33:52.263Z,18.52
2023-04-15T06:36:56.236Z,17.69
2023-04-15T06:39:59.992Z,18.30
2023-04-15T06:43:05.129Z,18.22
2023-04-15T06:46:08.850Z,18.60
2023-04-15T06:49:14.029Z,18.41
2023-04-15T06:52:18.062Z,18.68
2023-04-15T06:55:21.905Z,18.96
2023-04-15T06:58:25.809Z,19.29
2023-04-15T07:01:29.863Z,19.61
2023-04-15T07:04:35.412Z,19.56
2023-04-15T07:07:39.314Z,20.26
2023-04-15T07:10:43.183Z,20.60
2023-04-15T07:13:47.055Z,20.75
2023-04-15T07:16:50.942Z,20.62
2023-04-15T07:19:56.188Z,20.74
2023-04-15T07:23:00.008Z,20.78
2023-04-15T07:26:04.341Z,20.93
2023-04-15T07:29:08.122Z,21.22
2023-04-15T07:32:12.094Z,21.13
2023-04-15T07:35:17.276Z,20.99
2023-04-15T07:38:21.024Z,21.27
2023-04-15T07:41:25.978Z,20.77
2023-04-15T07:44:29.855Z,19.57
2023-04-15T07:47:33.688Z,20.06
2023-04-15T07:50:38.918Z,19.83
2023-04-15T07:53:42.861Z,20.23
2023-04-15T07:56:46.566Z,20.21
2023-04-15T07:59:50.510Z,21.05
2023-04-15T08:02:54.493Z,21.59
2023-04-15T08:06:00.143Z,21.80
2023-04-15T08:09:04.112Z,21.89
2023-04-15T08:12:09.739Z,20.98
2023-04-15T08:15:13.698Z,20.69
2023-04-15T08:18:17.519Z,21.64
2023-04-15T08:21:23.077Z,21.38
2023-04-15T08:24:27.700Z,21.90
2023-04-15T08:27:31.584Z,22.40
2023-04-15T08:30:35.443Z,21.78
2023-04-15T08:33:39.263Z,21.67
2023-04-15T08:36:44.620Z,21.39
2023-04-15T08:39:48.836Z,21.88
2023-04-15T08:42:56.362Z,21.60
2023-04-15T08:46:01.919Z,21.46
2023-04-15T08:49:07.375Z,22.00
2023-04-15T08:52:12.994Z,22.37
2023-04-15T08:55:17.705Z,22.74
2023-04-15T08:58:21.602Z,22.69
2023-04-15T09:01:25.468Z,22.62
2023-04-15T09:04:30.399Z,23.13
2023-04-15T09:07:37.127Z,23.14
2023-04-15T09:10:41.249Z,23.01
2023-04-15T09:13:44.961Z,23.20
2023-04-15T09:17:02.341Z,23.21
2023-04-15T09:20:11.521Z,23.57
2023-04-15T09:23:17.946Z,23.55
2023-04-15T09:26:21.852Z,23.15
2023-04-15T09:29:27.336Z,23.09
2023-04-15T09:32:31.608Z,23.22
2023-04-15T09:35:35.851Z,22.36
2023-04-15T09:38:56.969Z,22.12
2023-04-15T09:42:09.983Z,22.19
2023-04-15T09:45:13.958Z,22.42
2023-04-15T09:48:21.142Z,23.02
2023-04-15T09:51:36.828Z,23.20
2023-04-15T09:54:42.037Z,22.64
2023-04-15T09:57:47.693Z,23.09
2023-04-15T10:00:52.718Z,22.59
2023-04-15T10:03:59.548Z,22.75
2023-04-15T10:07:06.724Z,22.95
2023-04-15T10:10:13.229Z,22.58
2023-04-15T10:13:19.888Z,23.33
2023-04-15T10:16:24.525Z,24.17
2023-04-15T10:19:31.616Z,24.06
2023-04-15T10:22:36.488Z,24.54
2023-04-15T10:25:42.358Z,23.84
2023-04-15T10:28:47.466Z,23.79
2023-04-15T10:31:51.754Z,22.95
2023-04-15T10:34:56.432Z,23.19
2023-04-15T10:38:00.548Z,23.85
2023-04-15T10:41:21.273Z,24.02
2023-04-15T10:44:25.636Z,24.21
2023-04-15T10:47:29.915Z,23.54
2023-04-15T10:50:34.264Z,24.25
2023-04-15T10:53:39.896Z,24.03
2023-04-15T10:56:45.812Z,23.89
2023-04-15T11:00:06.884Z,24.21
2023-04-15T11:03:12.356Z,24.57
2023-04-15T11:06:16.213Z,24.29
2023-04-15T11:09:34.015Z,24.79
2023-04-15T11:12:39.129Z,24.65
2023-04-15T11:15:45.253Z,24.90
2023-04-15T11:18:56.254Z,24.54
2023-04-15T11:22:07.766Z,23.81
2023-04-15T11:25:11.255Z,23.95
2023-04-15T11:28:16.354Z,23.97
2023-04-15T11:31:20.493Z,24.35
2023-04-15T11:34:25.020Z,24.41
2023-04-15T11:37:33.788Z,24.35
2023-04-15T11:40:37.721Z,24.62
2023-04-15T11:43:43.146Z,24.83
2023-04-15T11:46:46.665Z,24.40
2023-04-15T11:49:50.582Z,23.77
2023-04-15T11:52:55.382Z,23.37
2023-04-15T11:55:59.189Z,22.78
2023-04-15T11:59:04.933Z,23.43
2023-04-15T12:02:14.524Z,23.68
2023-04-15T12:05:18.445Z,24.04
2023-04-15T12:08:22.382Z,24.05
2023-04-15T12:11:40.618Z,23.68
2023-04-15T12:14:46.002Z,23.96
2023-04-15T12:17:51.839Z,23.87
2023-04-15T12:20:56.042Z,24.01
2023-04-15T12:24:03.884Z,24.44
2023-04-15T12:27:09.394Z,23.88
2023-04-15T12:30:15.255Z,23.98
2023-04-15T12:33:18.893Z,24.10
2023-04-15T12:36:22.597Z,24.21
2023-04-15T12:39:28.694Z,24.19
2023-04-15T12:42:34.284Z,24.13
2023-04-15T12:45:39.358Z,23.90
2023-04-15T12:48:43.179Z,23.79
2023-04-15T12:51:46.648Z,23.98
2023-04-15T12:54:50.448Z,23.51
2023-04-15T12:57:54.367Z,23.33
2023-04-15T13:00:59.699Z,23.23
2023-04-15T13:04:03.601Z,23.21
2023-04-15T13:07:07.602Z,22.93
2023-04-15T13:10:12.273Z,22.85
2023-04-15T13:13:16.008Z,22.80
2023-04-15T13:16:22.162Z,22.68
2023-04-15T13:19:25.924Z,22.22
2023-04-15T13:22:29.532Z,22.73
2023-04-15T13:25:33.200Z,22.69
2023-04-15T13:28:36.725Z,22.73
2023-04-15T13:31:41.816Z,22.76
2023-04-15T13:34:45.304Z,22.72
2023-04-15T13:37:49.133Z,22.98
2023-04-15T13:40:52.920Z,23.16
2023-04-15T13:43:56.840Z,23.59
2023-04-15T13:47:02.061Z,23.63
2023-04-15T13:50:06.481Z,23.99
2023-04-15T13:53:10.303Z,24.09
2023-04-15T13:56:14.794Z,23.26
2023-04-15T13:59:18.367Z,22.95
2023-04-15T14:02:24.614Z,22.46
2023-04-15T14:05:28.348Z,22.32
2023-04-15T14:08:31.938Z,22.41
2023-04-15T14:11:37.003Z,22.36
2023-04-15T14:14:40.691Z,22.32
2023-04-15T14:17:46.053Z,22.41
2023-04-15T14:20:49.869Z,22.26
2023-04-15T14:23:53.613Z,22.35
2023-04-15T14:26:57.982Z,22.24
2023-04-15T14:30:01.632Z,22.14
2023-04-15T14:33:07.044Z,22.20
2023-04-15T14:36:11.540Z,22.33
2023-04-15T14:39:16.122Z,22.01
2023-04-15T14:42:19.837Z,21.99
2023-04-15T14:45:23.632Z,22.36
2023-04-15T14:48:29.062Z,22.48
2023-04-15T14:51:33.268Z,22.52
2023-04-15T14:54:37.079Z,22.49
2023-04-15T14:57:41.374Z,22.75
2023-04-15T15:00:45.500Z,23.33
2023-04-15T15:03:51.436Z,23.77
2023-04-15T15:06:55.304Z,23.78
2023-04-15T15:09:59.126Z,23.87
2023-04-15T15:13:03.625Z,23.49
2023-04-15T15:16:08.104Z,23.27
2023-04-15T15:19:13.519Z,22.88
2023-04-15T15:22:19.440Z,22.75
2023-04-15T15:25:24.695Z,23.08
2023-04-15T15:28:28.917Z,23.39
2023-04-15T15:31:32.931Z,23.55
2023-04-15T15:34:38.297Z,23.69
2023-04-15T15:37:43.965Z,23.64
2023-04-15T15:40:47.682Z,23.87
2023-04-15T15:43:51.525Z,23.59
2023-04-15T15:46:55.312Z,23.54
2023-04-15T15:50:03.606Z,23.19
2023-04-15T15:53:08.966Z,22.95
2023-04-15T15:56:12.745Z,22.56
2023-04-15T15:59:16.458Z,22.66
2023-04-15T16:02:34.953Z,22.68
2023-04-15T16:05:47.358Z,22.67
2023-04-15T16:08:51.070Z,22.44
2023-04-15T16:11:54.865Z,22.38
2023-04-15T16:14:58.642Z,22.13
2023-04-15T16:18:02.514Z,21.98
2023-04-15T16:21:08.157Z,21.80
2023-04-15T16:24:12.160Z,21.80
2023-04-15T16:27:17.303Z,21.63
2023-04-15T16:30:22.178Z,21.49
2023-04-15T16:33:26.077Z,21.49
2023-04-15T16:36:31.940Z,21.46
2023-04-15T16:39:35.618Z,21.52
2023-04-15T16:42:40.142Z,21.36
2023-04-15T16:45:44.838Z,21.17
2023-04-15T16:48:48.500Z,21.09
2023-04-15T16:51:54.670Z,20.98
2023-04-15T16:54:58.576Z,21.01
2023-04-15T16:58:04.213Z,21.02
2023-04-15T17:01:09.728Z,21.01
2023-04-15T17:04:13.764Z,20.98
2023-04-15T17:07:19.143Z,20.74
2023-04-15T17:10:22.923Z,20.69
2023-04-15T17:13:27.475Z,20.74
2023-04-15T17:16:31.156Z,20.69
2023-04-15T17:19:34.875Z,20.68
2023-04-15T17:22:40.189Z,20.68
2023-04-15T17:25:43.841Z,20.69
2023-04-15T17:28:47.689Z,20.70
2023-04-15T17:31:51.408Z,20.57
2023-04-15T17:34:55.254Z,20.53
2023-04-15T17:38:00.330Z,20.45
2023-04-15T17:41:05.093Z,20.36
2023-04-15T17:44:08.751Z,20.45
2023-04-15T17:47:12.434Z,20.29
2023-04-15T17:50:16.278Z,20.32
2023-04-15T17:53:21.239Z,20.22
2023-04-15T17:56:25.360Z,20.16
2023-04-15T17:59:29.446Z,20.16
2023-04-15T18:02:35.432Z,19.80
2023-04-15T18:05:42.530Z,19.92
2023-04-15T18:08:47.989Z,19.83
2023-04-15T18:11:51.528Z,19.80
2023-04-15T18:14:55.308Z,19.81
2023-04-15T18:17:59.261Z,19.92
2023-04-15T18:21:03.270Z,19.72
2023-04-15T18:24:08.842Z,19.53
2023-04-15T18:27:12.551Z,19.20
2023-04-15T18:30:16.266Z,19.43
2023-04-15T18:33:19.921Z,19.36
2023-04-15T18:36:24.350Z,19.27
2023-04-15T18:39:29.639Z,19.45
2023-04-15T18:42:33.307Z,19.24
2023-04-15T18:45:37.184Z,19.21
2023-04-15T18:48:40.860Z,19.07
2023-04-15T18:51:44.512Z,19.17
2023-04-15T18:54:49.606Z,19.11
2023-04-15T18:57:53.425Z,19.02
2023-04-15T19:01:00.503Z,18.90
2023-04-15T19:04:04.352Z,19.09
2023-04-15T19:07:09.911Z,19.12
2023-04-15T19:10:15.195Z,19.08
2023-04-15T19:13:20.381Z,19.13
2023-04-15T19:16:24.163Z,18.99
2023-04-15T19:19:29.639Z,19.09
2023-04-15T19:22:33.399Z,19.06
2023-04-15T19:25:38.796Z,18.66
2023-04-15T19:28:42.411Z,18.27
2023-04-15T19:31:46.172Z,17.80
2023-04-15T19:34:50.212Z,17.99
2023-04-15T19:37:53.992Z,17.80
2023-04-15T19:40:59.023Z,17.64
2023-04-15T19:44:03.352Z,17.68
2023-04-15T19:47:07.000Z,17.14
2023-04-15T19:50:12.138Z,17.24
2023-04-15T19:53:15.981Z,17.29
2023-04-15T19:56:21.178Z,17.03
2023-04-15T19:59:24.787Z,16.98
2023-04-15T20:02:30.739Z,16.99
2023-04-15T20:05:34.433Z,16.79
2023-04-15T20:08:38.157Z,16.63
2023-04-15T20:12:45.605Z,16.59
2023-04-15T20:15:08.382Z,16.65
2023-04-15T20:18:11.966Z,16.59
2023-04-15T20:21:15.905Z,16.78
2023-04-15T20:24:20.437Z,16.58
2023-04-15T20:27:25.739Z,16.40
2023-04-15T20:30:29.956Z,16.08
2023-04-15T20:33:33.540Z,16.24
2023-04-15T20:36:37.367Z,16.35
2023-04-15T20:39:42.281Z,16.10
2023-04-15T20:42:47.455Z,15.92
2023-04-15T20:45:52.480Z,16.12
2023-04-15T20:48:56.534Z,16.35
2023-04-15T20:52:00.247Z,16.17
2023-04-15T20:55:04.026Z,16.27
2023-04-15T20:58:09.017Z,16.35
2023-04-15T21:01:12.977Z,16.40
2023-04-15T21:04:16.749Z,16.26
2023-04-15T21:07:20.267Z,16.55
2023-04-15T21:10:23.977Z,16.45
2023-04-15T21:13:29.118Z,16.49
2023-04-15T21:16:34.171Z,16.47
2023-04-15T21:19:38.572Z,16.42
2023-04-15T21:22:42.513Z,16.58
2023-04-15T21:25:46.016Z,16.28
2023-04-15T21:28:51.170Z,16.49
2023-04-15T21:31:54.852Z,16.13
2023-04-15T21:34:58.578Z,16.28
2023-04-15T21:38:02.393Z,16.46
2023-04-15T21:41:09.804Z,16.13
2023-04-15T21:44:15.195Z,16.25
2023-04-15T21:47:19.182Z,16.25
2023-04-15T21:50:24.233Z,15.94
2023-04-15T21:53:28.693Z,15.84
2023-04-15T21:56:32.426Z,15.85
2023-04-15T21:59:37.613Z,15.86
2023-04-15T22:02:41.653Z,15.85
2023-04-15T22:05:47.067Z,15.96
2023-04-15T22:08:56.994Z,16.07
2023-04-15T22:12:01.348Z,16.27
2023-04-15T22:15:07.405Z,15.91
2023-04-15T22:18:11.154Z,15.65
2023-04-15T22:21:15.270Z,15.74
2023-04-15T22:24:37.274Z,15.51
2023-04-15T22:27:42.437Z,15.61
2023-04-15T22:30:47.430Z,15.50
2023-04-15T22:33:50.895Z,15.42
2023-04-15T22:36:54.681Z,15.47
2023-04-15T22:39:58.197Z,15.53
2023-04-15T22:43:01.775Z,15.42
2023-04-15T22:46:06.916Z,15.87
2023-04-15T22:49:11.148Z,16.01
2023-04-15T22:52:27.207Z,15.84
2023-04-15T22:55:33.797Z,15.73
2023-04-15T22:58:37.344Z,15.93
2023-04-15T23:01:42.346Z,15.88
2023-04-15T23:04:46.241Z,15.84
2023-04-15T23:07:49.759Z,15.57
2023-04-15T23:10:53.305Z,15.66
2023-04-15T23:13:57.031Z,15.69
2023-04-15T23:17:02.161Z,15.42
2023-04-15T23:20:06.617Z,15.47
2023-04-15T23:23:10.288Z,15.52
2023-04-15T23:26:13.801Z,15.61
2023-04-15T23:29:17.364Z,15.74
2023-04-15T23:32:22.407Z,15.78
2023-04-15T23:35:26.126Z,15.80
2023-04-15T23:38:29.603Z,15.77
2023-04-15T23:41:33.109Z,15.97
2023-04-15T23:44:38.480Z,16.14
2023-04-15T23:47:43.497Z,15.76
2023-04-15T23:50:47.056Z,15.86
2023-04-15T23:53:52.475Z,15.82
2023-04-15T23:56:56.046Z,15.36
